Time;durP1;ratioP1;P1;durP2;ratioP2;P2;SDS_P1;SDS_P2;PMS_P1;PMS_P2;Temp;Humidity;BMP_temperature;BMP_pressure;BME280_temperature;BME280_humidity;BME280_pressure;Samples;Min_cycle;Max_cycle;Signal;HPM_P1;HPM_P2
2022/05/03 00:01:40;;;;;;;11.13;6.10;;;;;;;11.73;54.76;101796.38;5048028;28;20091;-63
2022/05/03 00:04:26;;;;;;;6.88;6.18;;;;;;;11.68;54.98;101801.13;5033478;28;20069;-63
2022/05/03 00:07:18;;;;;;;7.97;6.68;;;;;;;11.74;54.06;101798.97;5032935;28;20040;-63
2022/05/03 00:09:59;;;;;;;8.32;6.13;;;;;;;11.55;55.31;101800.88;5046321;28;20037;-63
2022/05/03 00:12:37;;;;;;;8.00;6.50;;;;;;;11.51;54.86;101801.97;5047975;28;20029;-63
2022/05/03 00:15:05;;;;;;;9.35;6.32;;;;;;;11.51;55.16;101796.66;5048332;28;20064;-63
2022/05/03 00:17:32;;;;;;;6.78;5.78;;;;;;;11.49;55.15;101794.06;5048416;28;20116;-63
2022/05/03 00:19:58;;;;;;;6.95;6.25;;;;;;;11.50;55.32;101792.25;5032264;28;20087;-63
2022/05/03 00:22:24;;;;;;;6.97;6.38;;;;;;;11.47;55.09;101797.72;5048102;28;20030;-63
2022/05/03 00:24:56;;;;;;;9.35;6.00;;;;;;;11.36;55.03;101779.66;5032163;28;20440;-63
2022/05/03 00:27:25;;;;;;;6.28;5.78;;;;;;;11.33;55.05;101790.47;5031107;28;20026;-63
2022/05/03 00:29:55;;;;;;;14.10;6.30;;;;;;;11.23;55.46;101787.41;5032313;28;20049;-63
2022/05/03 00:32:22;;;;;;;6.88;6.07;;;;;;;11.31;55.30;101795.00;5031402;28;20519;-63
2022/05/03 00:34:49;;;;;;;7.57;5.88;;;;;;;11.26;55.16;101781.06;5031217;28;20021;-63
2022/05/03 00:37:15;;;;;;;6.78;6.05;;;;;;;11.17;55.17;101785.03;5030719;28;20502;-63
2022/05/03 00:39:41;;;;;;;7.22;6.47;;;;;;;11.08;55.34;101781.03;5046614;28;20029;-63
2022/05/03 00:42:19;;;;;;;7.43;5.97;;;;;;;11.10;55.21;101763.19;5030777;28;20091;-63
2022/05/03 00:45:03;;;;;;;6.70;5.17;;;;;;;11.23;54.96;101783.88;5031147;28;20067;-63
2022/05/03 00:47:37;;;;;;;6.75;6.15;;;;;;;11.25;54.78;101782.84;5032123;28;20275;-63
2022/05/03 00:50:07;;;;;;;6.68;6.07;;;;;;;11.12;55.11;101779.97;5031435;28;20476;-63
2022/05/03 00:52:49;;;;;;;6.28;5.68;;;;;;;11.27;54.67;101785.47;5047208;28;20022;-63
2022/05/03 00:55:37;;;;;;;6.82;6.22;;;;;;;11.28;54.70;101790.69;5032777;28;20158;-63
2022/05/03 00:58:21;;;;;;;7.68;6.18;;;;;;;11.48;54.06;101799.47;5047280;28;20041;-63
2022/05/03 01:01:04;;;;;;;6.80;6.03;;;;;;;11.32;54.00;101786.06;5048650;28;20053;-63
2022/05/03 01:03:38;;;;;;;8.60;6.28;;;;;;;11.42;54.08;101789.13;5031588;28;20026;-63
2022/05/03 01:06:21;;;;;;;7.70;6.60;;;;;;;11.36;54.09;101790.31;5047151;28;20404;-63
2022/05/03 01:09:06;;;;;;;6.90;6.30;;;;;;;11.29;53.97;101791.53;5060799;28;20468;-63
2022/05/03 01:12:01;;;;;;;7.50;6.30;;;;;;;11.33;53.88;101788.66;5031607;28;20029;-63
2022/05/03 01:14:55;;;;;;;8.15;6.40;;;;;;;11.25;54.36;101782.84;5032053;28;20055;-63
2022/05/03 01:17:30;;;;;;;6.95;6.28;;;;;;;11.27;54.19;101775.66;5026147;28;20045;-63
2022/05/03 01:20:01;;;;;;;6.85;6.20;;;;;;;11.16;54.12;101778.00;5046412;28;20029;-63
2022/05/03 01:22:27;;;;;;;7.60;6.85;;;;;;;11.10;54.63;101781.84;5030774;28;20094;-63
2022/05/03 01:25:15;;;;;;;7.10;6.07;;;;;;;10.98;55.27;101778.94;5030978;28;20129;-63
2022/05/03 01:28:02;;;;;;;7.28;6.57;;;;;;;11.07;54.67;101782.00;5031545;28;20033;-63
2022/05/03 01:30:32;;;;;;;8.05;6.50;;;;;;;11.00;54.80;101777.94;5030035;28;20025;-63
2022/05/03 01:33:08;;;;;;;7.55;6.15;;;;;;;11.00;54.99;101774.38;5046432;28;20108;-64
2022/05/03 01:35:39;;;;;;;8.65;6.50;;;;;;;10.97;54.98;101778.09;5031340;28;20071;-63
2022/05/03 01:38:13;;;;;;;8.43;6.28;;;;;;;10.93;54.94;101773.81;5030214;28;20383;-63
2022/05/03 01:40:52;;;;;;;7.53;6.60;;;;;;;10.91;55.31;101775.69;5046951;28;20431;-63
2022/05/03 01:43:29;;;;;;;8.25;6.30;;;;;;;10.89;55.06;101777.59;5033484;28;20069;-63
2022/05/03 01:46:16;;;;;;;7.85;6.63;;;;;;;10.79;55.06;101761.19;5032124;28;20469;-63
2022/05/03 01:51:44;;;;;;;8.30;6.93;;;;;;;10.74;56.10;101775.69;5031490;28;20095;-63
2022/05/03 01:54:15;;;;;;;6.80;6.15;;;;;;;10.66;56.09;101770.72;5051281;28;20068;-63
2022/05/03 01:57:00;;;;;;;7.22;6.60;;;;;;;10.61;55.88;101770.94;5049717;28;20396;-63
2022/05/03 01:59:57;;;;;;;7.72;6.93;;;;;;;10.58;56.19;101771.09;5051531;28;20033;-63
2022/05/03 02:02:39;;;;;;;9.88;6.72;;;;;;;10.33;56.75;101767.91;5035184;28;20045;-63
2022/05/03 02:05:07;;;;;;;7.53;6.78;;;;;;;10.38;56.83;101766.75;5046924;28;20491;-63
2022/05/03 02:07:59;;;;;;;7.70;6.47;;;;;;;10.38;56.71;101766.75;5051338;28;20558;-63
2022/05/03 02:10:44;;;;;;;7.78;6.43;;;;;;;10.30;56.88;101766.25;5049872;28;20029;-63
2022/05/03 02:13:18;;;;;;;7.22;6.40;;;;;;;10.29;56.89;101767.16;5044677;28;20032;-63
2022/05/03 02:15:47;;;;;;;7.43;6.40;;;;;;;10.10;56.81;101764.47;5029731;28;20540;-63
2022/05/03 02:18:26;;;;;;;7.20;6.50;;;;;;;10.04;57.14;101770.06;5042729;28;20037;-63
2022/05/03 02:21:10;;;;;;;7.97;6.40;;;;;;;10.19;56.60;101761.38;5051433;28;20467;-63
2022/05/03 02:24:03;;;;;;;7.43;6.72;;;;;;;10.25;55.98;101760.25;5030156;28;20074;-63
2022/05/03 02:26:35;;;;;;;12.52;6.72;;;;;;;10.21;56.80;101758.66;5029794;28;20043;-63
2022/05/03 02:29:10;;;;;;;6.85;6.22;;;;;;;10.09;56.97;101760.09;5045954;28;20083;-63
2022/05/03 02:31:44;;;;;;;7.43;6.60;;;;;;;10.14;56.56;101765.19;5028598;28;20380;-63
2022/05/03 02:34:12;;;;;;;9.65;6.90;;;;;;;10.15;56.85;101761.63;5030225;28;20108;-63
2022/05/03 02:37:21;;;;;;;7.22;6.60;;;;;;;10.06;56.72;101770.88;5031408;28;20030;-63
2022/05/03 02:40:07;;;;;;;8.27;6.90;;;;;;;10.12;56.23;101767.94;5039250;28;20047;-63
2022/05/03 02:42:33;;;;;;;8.43;7.00;;;;;;;9.96;56.97;101766.91;5063838;28;20029;-63
2022/05/03 02:45:00;;;;;;;7.45;6.65;;;;;;;9.91;57.25;101759.16;5034586;28;20029;-63
2022/05/03 02:47:34;;;;;;;7.72;6.93;;;;;;;9.93;57.22;101757.28;5038680;28;20507;-63
2022/05/03 02:50:04;;;;;;;7.85;6.80;;;;;;;9.93;57.12;101759.06;5050370;28;20025;-63
2022/05/03 02:53:08;;;;;;;;;;;;;;;10.17;55.33;101765.91;5049386;28;20027;-63
2022/05/03 02:55:54;;;;;;;7.25;6.63;;;;;;;9.97;56.01;101763.31;5006923;28;19924;-62
2022/05/03 02:58:41;;;;;;;7.38;6.63;;;;;;;9.97;56.22;101774.81;4992591;28;20033;-63
2022/05/03 03:01:47;;;;;;;6.88;6.28;;;;;;;9.87;56.57;101772.63;5046888;28;20048;-62
2022/05/03 03:04:26;;;;;;;7.63;6.93;;;;;;;9.83;56.85;101765.75;5051104;28;20091;-63
2022/05/03 03:06:55;;;;;;;7.60;6.90;;;;;;;9.72;57.63;101771.53;5030364;28;20057;-63
2022/05/03 03:09:40;;;;;;;6.72;5.75;;;;;;;9.69;56.99;101763.69;5020861;28;20389;-63
2022/05/03 03:12:27;;;;;;;9.70;7.00;;;;;;;9.53;57.30;101753.78;5029405;28;20125;-63
2022/05/03 03:15:06;;;;;;;11.13;7.55;;;;;;;9.60;57.55;101761.47;5032806;28;20017;-63
2022/05/03 03:17:36;;;;;;;9.55;6.82;;;;;;;9.51;57.86;101762.72;5033723;28;20025;-62
2022/05/03 03:20:14;;;;;;;8.10;6.95;;;;;;;9.56;57.57;101752.78;5037661;28;20040;-63
2022/05/03 03:22:45;;;;;;;9.45;6.40;;;;;;;9.38;58.03;101759.72;5038203;28;20022;-63
2022/05/03 03:25:18;;;;;;;7.38;6.68;;;;;;;9.36;58.43;101763.41;5047416;28;20049;-63
2022/05/03 03:27:49;;;;;;;7.05;6.45;;;;;;;9.36;57.86;101758.09;5058584;28;20127;-63
2022/05/03 03:30:16;;;;;;;7.35;6.65;;;;;;;9.34;58.46;101766.09;5048404;28;20121;-63
2022/05/03 03:32:48;;;;;;;7.70;6.90;;;;;;;9.39;57.97;101769.44;5043907;28;20021;-63
2022/05/03 03:35:17;;;;;;;10.05;6.55;;;;;;;9.33;58.42;101769.69;5033339;28;20451;-63
2022/05/03 03:37:46;;;;;;;8.20;6.60;;;;;;;9.22;58.43;101770.16;5056802;28;20132;-63
2022/05/03 03:40:13;;;;;;;8.88;7.43;;;;;;;9.14;58.51;101764.28;5053651;28;20056;-63
2022/05/03 03:42:39;;;;;;;7.63;6.57;;;;;;;9.01;59.05;101758.66;5050499;28;20515;-63
2022/05/03 03:45:08;;;;;;;8.68;7.13;;;;;;;9.08;58.83;101756.59;5042286;28;20095;-63
2022/05/03 03:47:38;;;;;;;7.43;6.73;;;;;;;9.12;58.84;101759.97;5039372;28;20117;-62
2022/05/03 03:50:05;;;;;;;7.78;6.82;;;;;;;9.12;58.92;101755.56;5047029;28;20036;-63
2022/05/03 03:52:32;;;;;;;9.70;7.38;;;;;;;8.99;59.16;101757.84;5033660;28;20020;-63
2022/05/03 03:54:58;;;;;;;10.48;6.88;;;;;;;8.93;59.31;101750.16;5033024;28;20024;-63
2022/05/03 03:57:24;;;;;;;7.80;7.10;;;;;;;8.97;59.28;101756.19;5032657;28;20026;-62
2022/05/03 03:59:50;;;;;;;9.55;7.18;;;;;;;8.85;59.58;101760.19;5032930;28;20447;-63
2022/05/03 04:02:15;;;;;;;10.40;7.45;;;;;;;8.90;59.33;101754.72;5047945;28;20025;-63
2022/05/03 04:04:43;;;;;;;7.65;6.85;;;;;;;8.86;59.27;101761.94;5048659;28;20159;-63
2022/05/03 04:07:08;;;;;;;10.38;7.43;;;;;;;8.85;59.56;101761.09;5048260;28;20022;-63
2022/05/03 04:09:35;;;;;;;8.02;7.18;;;;;;;8.83;59.55;101762.94;5032100;28;20086;-63
2022/05/03 04:12:01;;;;;;;7.47;6.78;;;;;;;8.73;59.38;101748.31;5045586;28;20108;-63
2022/05/03 04:14:30;;;;;;;10.85;7.38;;;;;;;8.81;59.42;101762.13;5041408;28;20028;-63
2022/05/03 04:16:57;;;;;;;8.33;7.40;;;;;;;8.73;59.48;101760.72;5039802;28;20027;-63
2022/05/03 04:19:23;;;;;;;10.25;7.80;;;;;;;8.82;59.74;101765.63;5051711;28;20028;-63
2022/05/03 04:21:49;;;;;;;8.88;7.97;;;;;;;8.73;59.88;101766.00;5051774;28;20021;-62
2022/05/03 04:24:16;;;;;;;8.35;7.38;;;;;;;8.74;59.81;101763.31;5041295;28;20045;-62
2022/05/03 04:26:41;;;;;;;13.68;8.60;;;;;;;8.75;60.01;101764.19;5048275;28;20026;-63
2022/05/03 04:29:09;;;;;;;10.65;7.38;;;;;;;8.74;60.09;101773.94;5047960;28;20026;-63
2022/05/03 04:31:36;;;;;;;8.17;7.47;;;;;;;8.77;60.23;101767.63;5032750;28;20025;-62
2022/05/03 04:34:04;;;;;;;9.65;7.90;;;;;;;8.76;60.29;101763.25;5031008;28;20507;-62
2022/05/03 04:36:32;;;;;;;8.68;7.82;;;;;;;8.79;60.32;101768.41;5030737;28;20021;-63
2022/05/03 04:38:59;;;;;;;8.57;7.78;;;;;;;8.72;60.37;101762.50;5031551;28;20025;-63
2022/05/03 04:41:25;;;;;;;11.98;8.20;;;;;;;8.72;60.86;101761.66;5031143;28;20044;-62
2022/05/03 04:43:51;;;;;;;8.88;7.97;;;;;;;8.87;60.17;101776.94;5030458;28;20021;-63
2022/05/03 04:46:20;;;;;;;12.05;8.07;;;;;;;8.69;60.99;101775.88;5029719;28;20040;-63
2022/05/03 04:48:46;;;;;;;11.20;8.25;;;;;;;8.71;61.51;101781.16;5033993;28;20668;-63
2022/05/03 04:51:18;;;;;;;9.02;7.88;;;;;;;8.72;61.26;101775.75;5041261;28;20095;-62
2022/05/03 04:53:44;;;;;;;9.23;7.90;;;;;;;8.72;61.34;101780.22;5036639;28;20083;-63
2022/05/03 04:56:21;;;;;;;10.50;8.40;;;;;;;8.78;60.98;101780.81;5052189;28;20040;-62
2022/05/03 04:58:50;;;;;;;10.60;7.72;;;;;;;8.76;61.20;101784.47;5050220;28;20055;-62
2022/05/03 05:01:17;;;;;;;8.85;7.95;;;;;;;8.75;61.07;101786.25;5049550;28;20119;-63
2022/05/03 05:03:43;;;;;;;8.70;7.85;;;;;;;8.86;61.65;101777.88;5044546;28;20112;-63
2022/05/03 05:06:10;;;;;;;13.77;8.43;;;;;;;8.79;61.58;101789.63;5032322;28;20545;-62
2022/05/03 05:08:37;;;;;;;8.45;7.65;;;;;;;8.84;61.61;101779.72;5030066;28;20021;-63
2022/05/03 05:11:03;;;;;;;9.07;8.27;;;;;;;8.81;61.72;101779.84;5032214;28;20025;-62
2022/05/03 05:13:29;;;;;;;12.30;8.85;;;;;;;8.91;61.55;101785.63;5046513;28;20379;-62
2022/05/03 05:15:55;;;;;;;9.05;8.13;;;;;;;8.89;61.84;101793.66;5031607;28;20025;-62
2022/05/03 05:18:24;;;;;;;13.38;8.63;;;;;;;8.92;61.78;101796.19;5030755;28;20026;-62
2022/05/03 05:20:50;;;;;;;9.73;8.63;;;;;;;8.92;61.70;101790.03;5032257;28;20375;-63
2022/05/03 05:23:16;;;;;;;10.38;8.52;;;;;;;8.96;61.81;101799.56;5030251;28;20102;-63
2022/05/03 05:25:41;;;;;;;10.25;9.25;;;;;;;9.09;61.64;101799.00;5031242;28;20116;-63
2022/05/03 05:28:09;;;;;;;10.18;9.02;;;;;;;8.99;61.62;101800.31;5030839;28;20041;-63
2022/05/03 05:30:35;;;;;;;17.33;9.30;;;;;;;8.99;62.12;101815.38;5030865;28;20025;-62
2022/05/03 05:33:01;;;;;;;12.63;10.10;;;;;;;8.98;62.19;101809.19;5030700;28;20484;-62
2022/05/03 05:35:29;;;;;;;10.35;9.13;;;;;;;9.10;61.51;101800.72;5047016;28;20026;-62
2022/05/03 05:37:54;;;;;;;10.35;9.13;;;;;;;9.21;61.54;101810.03;5046117;28;20037;-62
2022/05/03 05:40:20;;;;;;;10.82;9.70;;;;;;;9.29;61.78;101813.22;5046183;28;20025;-62
2022/05/03 05:42:49;;;;;;;10.27;9.30;;;;;;;9.32;61.48;101811.31;5046421;28;20095;-62
2022/05/03 05:45:15;;;;;;;14.48;9.60;;;;;;;9.35;61.40;101817.41;5030013;28;20369;-62
2022/05/03 05:47:41;;;;;;;11.57;9.80;;;;;;;9.42;61.40;101805.63;5067134;28;20039;-62
2022/05/03 05:50:07;;;;;;;11.88;9.75;;;;;;;9.43;61.34;101817.94;5050059;28;20487;-63
2022/05/03 05:55:19;;;;;;;12.48;10.07;;;;;;;9.44;61.03;101809.03;5011378;28;20185;-63
2022/05/03 05:57:44;;;;;;;11.23;10.10;;;;;;;9.48;61.41;101816.81;5037002;28;20048;-62
2022/05/03 06:00:10;;;;;;;10.75;9.60;;;;;;;9.63;61.12;101817.09;5031204;28;20473;-63
2022/05/03 06:02:36;;;;;;;18.08;9.50;;;;;;;9.69;60.66;101816.81;5012736;28;20033;-63
2022/05/03 06:05:01;;;;;;;11.40;9.45;;;;;;;9.67;61.00;101811.56;5029721;28;20043;-63
2022/05/03 06:07:27;;;;;;;12.95;9.70;;;;;;;9.63;60.49;101810.00;5047655;28;20501;-64
2022/05/03 06:09:52;;;;;;;10.88;9.10;;;;;;;9.68;60.60;101817.78;5050235;28;20036;-63
2022/05/03 06:12:17;;;;;;;9.57;8.68;;;;;;;9.83;60.61;101822.41;5030281;28;20087;-62
2022/05/03 06:14:43;;;;;;;9.73;8.73;;;;;;;9.93;59.97;101815.72;5031463;28;20129;-63
2022/05/03 06:17:09;;;;;;;14.63;10.20;;;;;;;10.05;59.42;101824.09;5046052;28;20037;-62
2022/05/03 06:19:34;;;;;;;10.90;9.38;;;;;;;10.20;58.99;101826.91;5030888;28;20037;-62
2022/05/03 06:22:00;;;;;;;10.98;8.80;;;;;;;10.30;58.13;101830.06;5030481;28;20069;-63
2022/05/03 06:24:26;;;;;;;13.32;8.60;;;;;;;10.37;58.28;101823.50;5031082;28;20050;-63
2022/05/03 06:26:54;;;;;;;9.38;8.48;;;;;;;10.52;57.88;101829.91;5030656;28;20033;-63
2022/05/03 06:29:20;;;;;;;9.48;8.55;;;;;;;10.63;57.50;101830.25;5013756;28;20036;-62
2022/05/03 06:31:45;;;;;;;10.05;7.57;;;;;;;10.74;56.82;101820.94;5029236;28;20030;-63
2022/05/03 06:34:11;;;;;;;8.85;7.97;;;;;;;10.79;56.35;101819.75;5029330;28;20040;-63
2022/05/03 06:36:37;;;;;;;11.07;8.10;;;;;;;10.91;55.93;101827.16;5040365;28;20041;-63
2022/05/03 06:39:06;;;;;;;9.02;8.10;;;;;;;11.07;55.41;101821.94;5051866;28;20025;-63
2022/05/03 06:41:32;;;;;;;9.23;8.20;;;;;;;11.18;54.85;101821.41;5053665;28;20163;-63
2022/05/03 06:43:58;;;;;;;9.00;8.10;;;;;;;11.35;54.35;101829.41;5040355;28;20038;-63
2022/05/03 06:46:24;;;;;;;10.93;8.10;;;;;;;11.43;52.55;101818.34;5016447;28;20116;-63
2022/05/03 06:48:49;;;;;;;9.82;7.80;;;;;;;11.66;52.60;101830.50;5034179;28;20115;-63
2022/05/03 06:51:15;;;;;;;10.45;7.65;;;;;;;11.79;51.43;101828.03;5033212;28;20125;-63
2022/05/03 06:53:43;;;;;;;8.57;7.45;;;;;;;11.93;51.04;101833.53;5065845;28;20037;-62
2022/05/03 06:56:09;;;;;;;8.90;7.38;;;;;;;12.11;49.57;101823.69;5065319;28;20037;-63
2022/05/03 06:58:34;;;;;;;8.50;7.70;;;;;;;12.17;49.65;101826.03;5033360;28;20029;-63
2022/05/03 07:01:14;;;;;;;8.13;6.57;;;;;;;12.28;49.65;101828.13;5047844;28;20037;-63
2022/05/03 07:03:41;;;;;;;7.55;6.70;;;;;;;12.34;49.22;101830.47;5047750;28;20529;-63
2022/05/03 07:06:08;;;;;;;6.97;6.38;;;;;;;12.46;46.95;101828.91;5047357;28;20492;-63
2022/05/03 07:08:36;;;;;;;7.45;6.43;;;;;;;12.52;46.61;101836.59;5054091;28;20025;-63
2022/05/03 07:11:03;;;;;;;7.45;6.75;;;;;;;12.75;45.65;101831.78;5050616;28;20021;-63
2022/05/03 07:13:30;;;;;;;7.07;6.28;;;;;;;12.92;45.18;101839.69;5033032;28;20032;-63
2022/05/03 07:15:57;;;;;;;6.60;5.60;;;;;;;13.02;44.50;101845.38;5057619;28;20119;-63
2022/05/03 07:23:52;;;;;;;6.22;5.63;;;;;;;13.43;42.17;101842.97;5046486;28;20527;-63
2022/05/03 07:26:21;;;;;;;6.40;5.80;;;;;;;13.54;42.26;101840.53;5040216;28;20425;-63
2022/05/03 07:28:48;;;;;;;5.90;4.80;;;;;;;13.64;39.37;101840.84;5041249;28;20017;-63
2022/05/03 07:31:17;;;;;;;8.25;4.78;;;;;;;13.68;39.02;101831.69;5034761;28;20068;-63
2022/05/03 07:33:43;;;;;;;6.93;4.35;;;;;;;13.80;38.15;101849.66;5030286;28;20025;-63
2022/05/03 07:36:10;;;;;;;4.55;3.97;;;;;;;13.89;38.39;101848.25;5030793;28;20027;-63
2022/05/03 07:38:36;;;;;;;5.18;4.68;;;;;;;14.10;38.11;101851.41;5046612;28;20033;-63
2022/05/03 07:41:02;;;;;;;5.75;4.50;;;;;;;14.20;36.40;101849.03;5050308;28;20417;-63
2022/05/03 07:43:28;;;;;;;5.30;4.47;;;;;;;14.33;36.72;101847.31;5051115;28;20090;-63
2022/05/03 07:45:54;;;;;;;4.75;4.22;;;;;;;14.41;36.47;101847.69;5032833;28;20030;-63
2022/05/03 07:48:20;;;;;;;4.25;3.85;;;;;;;14.40;36.62;101837.94;5040462;28;20162;-63
2022/05/03 07:50:46;;;;;;;6.05;4.55;;;;;;;14.56;36.73;101850.38;5039731;28;20108;-63
2022/05/03 07:53:12;;;;;;;5.47;4.97;;;;;;;14.66;37.25;101844.34;5033244;28;20032;-63
2022/05/03 07:55:37;;;;;;;5.60;4.88;;;;;;;14.73;36.95;101844.78;5033998;28;20025;-63
2022/05/03 07:58:03;;;;;;;7.18;5.07;;;;;;;14.82;36.99;101846.03;5031831;28;20515;-63
2022/05/03 08:00:29;;;;;;;5.20;4.70;;;;;;;14.79;37.20;101839.03;5031787;28;20037;-63
2022/05/03 08:02:55;;;;;;;4.93;4.53;;;;;;;14.87;37.07;101849.25;5032937;28;20090;-63
2022/05/03 08:05:21;;;;;;;5.60;4.50;;;;;;;14.97;37.16;101831.63;5031529;28;20099;-63
2022/05/03 08:07:47;;;;;;;9.07;5.10;;;;;;;15.10;37.49;101847.75;5048146;28;20043;-63
2022/05/03 08:10:12;;;;;;;9.63;5.13;;;;;;;15.17;37.57;101849.91;5030964;28;20489;-63
2022/05/03 08:12:38;;;;;;;9.23;4.82;;;;;;;15.33;36.30;101847.09;5032444;28;20037;-63
2022/05/03 08:15:04;;;;;;;5.13;4.53;;;;;;;15.39;36.55;101844.00;5032746;28;20033;-63
2022/05/03 08:17:31;;;;;;;6.60;4.93;;;;;;;15.44;37.17;101843.66;5031001;28;20033;-63
2022/05/03 08:19:57;;;;;;;6.60;5.45;;;;;;;15.64;36.27;101845.00;5031868;28;20025;-63
2022/05/03 08:22:22;;;;;;;5.35;4.85;;;;;;;15.72;36.77;101850.72;5048292;28;20032;-63
2022/05/03 08:24:48;;;;;;;6.15;5.65;;;;;;;15.92;35.82;101849.34;5045915;28;20523;-63
2022/05/03 08:27:13;;;;;;;8.15;5.40;;;;;;;16.00;36.14;101854.16;5040761;28;20044;-64
2022/05/03 08:29:41;;;;;;;7.85;5.32;;;;;;;16.23;35.78;101852.56;5052743;28;20024;-64
2022/05/03 08:32:08;;;;;;;7.13;5.20;;;;;;;16.27;36.44;101865.66;5037041;28;20037;-64
2022/05/03 08:34:34;;;;;;;5.75;5.25;;;;;;;16.39;35.96;101853.19;5067730;28;20044;-63
2022/05/03 08:42:30;;;;;;;8.68;5.78;;;;;;;16.71;35.83;101850.88;5052100;28;20044;-63
2022/05/03 08:44:56;;;;;;;8.98;6.07;;;;;;;16.76;36.53;101856.78;5019616;28;20037;-64
2022/05/03 08:47:25;;;;;;;9.13;6.88;;;;;;;16.89;37.56;101851.38;5032642;28;20037;-63
2022/05/03 08:50:03;;;;;;;7.55;6.82;;;;;;;16.93;37.32;101847.50;5032354;28;20087;-63
2022/05/03 08:52:33;;;;;;;7.20;6.43;;;;;;;17.03;37.74;101853.06;5031538;28;20017;-64
2022/05/03 08:55:00;;;;;;;8.45;7.10;;;;;;;16.96;36.15;101851.78;5030844;28;20414;-64
2022/05/03 08:57:27;;;;;;;7.95;7.15;;;;;;;17.09;36.01;101855.28;5033543;28;20174;-63
2022/05/03 08:59:54;;;;;;;7.55;6.72;;;;;;;17.21;36.85;101849.00;5025296;28;20029;-64
2022/05/03 09:02:19;;;;;;;10.80;6.85;;;;;;;17.35;37.65;101849.75;5030739;28;20051;-64
2022/05/03 09:04:47;;;;;;;8.38;7.57;;;;;;;17.56;37.69;101849.97;5040701;28;20041;-63
2022/05/03 09:07:19;;;;;;;8.65;6.97;;;;;;;17.45;37.05;101846.28;5038129;28;20033;-63
2022/05/03 09:09:45;;;;;;;8.77;7.57;;;;;;;17.79;37.27;101854.47;5029905;28;20033;-63
2022/05/03 09:12:24;;;;;;;8.93;7.47;;;;;;;17.77;37.41;101840.25;5026742;28;20028;-63
2022/05/03 09:14:49;;;;;;;9.05;7.50;;;;;;;17.97;37.37;101852.19;5020498;28;20033;-63
2022/05/03 09:17:15;;;;;;;7.95;7.15;;;;;;;18.09;36.74;101847.69;5030730;28;20040;-64
2022/05/03 09:19:41;;;;;;;8.80;6.85;;;;;;;18.06;36.95;101851.47;5030848;28;20033;-63
2022/05/03 09:25:02;;;;;;;7.97;7.25;;;;;;;18.35;37.47;101853.66;5043806;28;20076;-64
2022/05/03 09:27:28;;;;;;;8.35;7.38;;;;;;;18.54;36.63;101850.38;5042826;28;20124;-64
2022/05/03 09:30:09;;;;;;;8.50;7.43;;;;;;;18.65;37.10;101850.34;5012066;28;20064;-64
2022/05/03 09:32:44;;;;;;;9.73;7.60;;;;;;;18.73;37.64;101852.41;5040141;28;20067;-65
2022/05/03 09:35:32;;;;;;;7.43;6.63;;;;;;;18.80;37.93;101851.81;5036388;28;20033;-64
2022/05/03 09:37:59;;;;;;;7.80;7.10;;;;;;;18.87;37.11;101854.88;5027238;28;20045;-64
2022/05/03 09:40:25;;;;;;;7.15;6.13;;;;;;;18.98;36.13;101852.16;5027561;28;20379;-64
2022/05/03 09:42:56;;;;;;;7.35;6.60;;;;;;;19.01;37.16;101849.19;5046465;28;20021;-64
2022/05/03 09:45:23;;;;;;;8.52;7.55;;;;;;;18.93;37.38;101843.56;5029231;28;20057;-64
2022/05/03 09:47:53;;;;;;;8.43;6.57;;;;;;;19.06;36.99;101846.13;5046520;28;20104;-64
2022/05/03 09:50:26;;;;;;;6.65;6.03;;;;;;;19.20;36.88;101847.66;5043111;28;20032;-64
2022/05/03 09:52:52;;;;;;;7.00;6.30;;;;;;;19.32;37.66;101848.47;5028818;28;20152;-64
2022/05/03 09:55:29;;;;;;;7.40;6.70;;;;;;;19.51;37.22;101851.34;5036562;28;20399;-64
2022/05/03 09:57:58;;;;;;;8.27;7.47;;;;;;;19.54;37.16;101851.06;5034311;28;20056;-64
2022/05/03 10:00:24;;;;;;;10.73;5.97;;;;;;;19.57;37.20;101849.97;5032063;28;20025;-64
2022/05/03 10:02:49;;;;;;;7.50;6.30;;;;;;;19.60;36.87;101847.84;5028919;28;20049;-64
2022/05/03 10:05:17;;;;;;;7.85;6.13;;;;;;;19.59;35.66;101846.16;5032035;28;20087;-64
2022/05/03 10:07:46;;;;;;;9.93;6.05;;;;;;;19.70;36.44;101851.50;5049468;28;20048;-64
2022/05/03 10:10:14;;;;;;;7.40;6.70;;;;;;;19.88;35.66;101834.69;5032846;28;20163;-64
2022/05/03 10:12:42;;;;;;;6.82;6.18;;;;;;;20.06;35.50;101835.81;5030427;28;20099;-64
2022/05/03 10:15:10;;;;;;;8.32;7.45;;;;;;;20.15;36.23;101837.69;5031673;28;20397;-65
2022/05/03 10:20:42;;;;;;;;;;;;;;;20.50;36.33;101838.25;5037244;28;20064;-65
2022/05/03 10:23:23;;;;;;;10.40;7.68;;;;;;;20.27;36.47;101826.81;5032608;28;19924;-66
2022/05/03 10:25:50;;;;;;;8.20;7.30;;;;;;;20.21;36.60;101836.31;5049786;28;20494;-66
2022/05/03 10:28:16;;;;;;;9.02;7.15;;;;;;;20.03;37.25;101829.78;5036236;28;20061;-66
2022/05/03 10:31:20;;;;;;;8.70;6.50;;;;;;;20.02;36.96;101830.81;5031356;28;20021;-65
2022/05/03 10:33:48;;;;;;;13.15;7.57;;;;;;;19.96;37.64;101824.94;4984580;28;20113;-63
2022/05/03 10:36:32;;;;;;;8.15;7.32;;;;;;;20.19;37.00;101820.22;5024221;28;20467;-64
2022/05/03 10:39:05;;;;;;;7.70;6.38;;;;;;;20.42;36.92;101820.88;5058179;28;20029;-64
2022/05/03 10:41:31;;;;;;;8.73;7.68;;;;;;;20.59;36.10;101816.69;5038745;28;20481;-64
2022/05/03 10:43:56;;;;;;;9.30;7.07;;;;;;;20.85;35.87;101821.56;5033955;28;20024;-64
2022/05/03 10:46:23;;;;;;;11.52;7.85;;;;;;;20.69;35.71;101821.28;5049054;28;20131;-64
2022/05/03 10:49:09;;;;;;;8.50;6.75;;;;;;;20.82;35.86;101817.31;5032835;28;20029;-64
2022/05/03 10:51:35;;;;;;;7.93;6.80;;;;;;;20.87;35.00;101806.06;5033004;28;20509;-64
2022/05/03 10:54:03;;;;;;;6.97;6.07;;;;;;;21.23;35.06;101811.78;5033829;28;20168;-64
2022/05/03 10:56:29;;;;;;;7.25;5.68;;;;;;;21.42;34.51;101813.66;5032790;28;20029;-64
2022/05/03 10:59:16;;;;;;;7.63;5.72;;;;;;;21.61;34.26;101810.06;5048842;28;20041;-64
2022/05/03 11:02:10;;;;;;;7.60;6.90;;;;;;;21.83;34.50;101812.44;5045439;28;20031;-64
2022/05/03 11:05:13;;;;;;;7.38;6.55;;;;;;;21.85;33.67;101807.72;5030386;28;20071;-64
2022/05/03 11:07:39;;;;;;;7.18;6.47;;;;;;;21.82;34.89;101794.47;5035797;28;20491;-64
2022/05/03 11:10:42;;;;;;;7.45;6.28;;;;;;;22.14;33.75;101804.91;5041932;28;20111;-64
2022/05/03 11:13:40;;;;;;;6.88;6.10;;;;;;;21.70;34.11;101798.34;5051560;28;20028;-64
2022/05/03 11:16:24;;;;;;;10.88;5.72;;;;;;;21.60;34.36;101795.69;5041840;28;20025;-64
2022/05/03 11:18:51;;;;;;;6.18;4.88;;;;;;;21.68;33.31;101784.97;5048129;28;20111;-64
2022/05/03 11:21:16;;;;;;;4.75;4.35;;;;;;;21.92;32.94;101795.31;5034748;28;20485;-64
2022/05/03 11:23:54;;;;;;;6.25;4.35;;;;;;;22.28;32.75;101786.50;5033625;28;20037;-65
2022/05/03 11:26:21;;;;;;;4.63;4.13;;;;;;;22.70;31.90;101791.38;5049369;28;20055;-64
2022/05/03 11:28:51;;;;;;;7.10;5.13;;;;;;;22.80;32.22;101778.63;5037588;28;20029;-65
2022/05/03 11:31:20;;;;;;;5.85;5.25;;;;;;;23.18;31.22;101782.91;5049609;28;20023;-65
2022/05/03 11:33:58;;;;;;;5.45;4.95;;;;;;;23.45;31.63;101783.81;5050371;28;20066;-65
2022/05/03 11:36:30;;;;;;;6.30;5.55;;;;;;;23.82;30.67;101782.72;5050128;28;20399;-64
2022/05/03 11:38:56;;;;;;;5.55;5.05;;;;;;;24.05;28.71;101775.72;5021799;28;20021;-65
2022/05/03 11:41:21;;;;;;;5.80;5.05;;;;;;;24.20;28.88;101774.06;5037990;28;20030;-65
2022/05/03 11:43:47;;;;;;;6.53;5.88;;;;;;;24.39;28.70;101763.97;5048023;28;20491;-65
2022/05/03 11:46:18;;;;;;;6.72;4.82;;;;;;;24.75;29.23;101763.75;5022455;28;20179;-65
2022/05/03 11:48:52;;;;;;;8.00;6.82;;;;;;;24.22;29.03;101766.59;5033079;28;20037;-65
2022/05/03 11:56:47;;;;;;;7.22;6.05;;;;;;;22.20;32.83;101760.13;5049011;28;20124;-64
2022/05/03 11:59:14;;;;;;;7.95;6.20;;;;;;;21.78;34.00;101753.28;5047273;28;20116;-64
2022/05/03 12:01:40;;;;;;;7.82;6.68;;;;;;;21.59;33.26;101750.66;5062633;28;20116;-65
2022/05/03 12:04:07;;;;;;;9.45;7.53;;;;;;;21.19;34.78;101740.03;5047423;28;20532;-64
2022/05/03 12:06:43;;;;;;;7.65;6.85;;;;;;;21.02;34.93;101758.66;5033775;28;20029;-64
2022/05/03 12:09:16;;;;;;;7.82;7.10;;;;;;;20.80;35.67;101749.00;5031783;28;20374;-64
2022/05/03 12:14:37;;;;;;;7.25;6.05;;;;;;;20.83;35.48;101748.72;5034032;28;20035;-64
2022/05/03 12:17:03;;;;;;;6.13;5.07;;;;;;;20.92;34.78;101752.41;5031806;28;20131;-64